createdAt,value
2023-05-09T00:01:17.794Z,0.80
2023-05-09T00:03:46.361Z,0.80
2023-05-09T00:06:17.078Z,0.70
2023-05-09T00:08:45.896Z,0.80
2023-05-09T00:11:39.749Z,0.80
2023-05-09T00:16:37.370Z,0.90
2023-05-09T00:19:06.019Z,1.10
2023-05-09T00:21:34.605Z,1.10
2023-05-09T00:24:03.133Z,1.30
2023-05-09T00:26:31.455Z,1.00
2023-05-09T00:28:59.574Z,1.10
2023-05-09T00:31:28.665Z,1.20
2023-05-09T00:33:57.350Z,0.90
2023-05-09T00:36:25.597Z,1.20
2023-05-09T00:38:54.175Z,1.00
2023-05-09T00:41:22.436Z,1.00
2023-05-09T00:43:51.842Z,1.30
2023-05-09T00:48:51.362Z,1.40
2023-05-09T00:51:21.273Z,1.10
2023-05-09T00:53:49.279Z,1.10
2023-05-09T00:56:17.648Z,1.00
2023-05-09T00:58:45.715Z,0.90
2023-05-09T01:01:14.292Z,1.00
2023-05-09T01:03:43.628Z,1.10
2023-05-09T01:06:22.700Z,1.80
2023-05-09T01:09:15.510Z,1.10
2023-05-09T01:12:19.677Z,1.10
2023-05-09T01:15:06.803Z,1.10
2023-05-09T01:17:41.949Z,1.10
2023-05-09T01:20:19.721Z,1.10
2023-05-09T01:23:13.632Z,0.70
2023-05-09T01:26:27.764Z,0.90
2023-05-09T01:29:20.499Z,1.20
2023-05-09T01:31:52.255Z,1.00
2023-05-09T01:34:25.353Z,1.30
2023-05-09T01:36:59.865Z,0.80
2023-05-09T01:39:32.560Z,1.00
2023-05-09T01:42:05.224Z,1.10
2023-05-09T01:44:45.482Z,0.80
2023-05-09T01:47:17.339Z,1.10
2023-05-09T01:49:48.735Z,0.90
2023-05-09T01:52:20.820Z,0.70
2023-05-09T01:54:52.512Z,0.80
2023-05-09T01:57:23.753Z,0.90
2023-05-09T01:59:53.221Z,0.90
2023-05-09T02:02:21.853Z,0.90
2023-05-09T02:04:51.365Z,1.10
2023-05-09T02:07:21.773Z,0.70
2023-05-09T02:09:57.019Z,0.90
2023-05-09T02:12:25.386Z,0.60
2023-05-09T02:14:53.759Z,1.00
2023-05-09T02:17:22.271Z,0.90
2023-05-09T02:19:50.928Z,1.00
2023-05-09T02:22:23.302Z,0.90
2023-05-09T02:24:52.331Z,0.80
2023-05-09T02:29:55.286Z,0.70
2023-05-09T02:32:27.516Z,0.70
2023-05-09T02:34:58.525Z,0.70
2023-05-09T02:37:28.424Z,0.60
2023-05-09T02:39:59.355Z,0.70
2023-05-09T02:42:32.338Z,1.10
2023-05-09T02:45:02.382Z,0.90
2023-05-09T02:47:32.497Z,0.70
2023-05-09T02:50:03.032Z,0.80
2023-05-09T02:52:32.317Z,0.70
2023-05-09T02:55:01.761Z,0.70
2023-05-09T02:57:30.441Z,0.70
2023-05-09T02:59:58.869Z,0.80
2023-05-09T03:02:27.496Z,0.70
2023-05-09T03:04:57.257Z,1.00
2023-05-09T03:07:25.991Z,0.80
2023-05-09T03:09:54.424Z,0.80
2023-05-09T03:12:22.700Z,0.90
2023-05-09T03:14:53.648Z,1.10
2023-05-09T03:17:23.569Z,0.90
2023-05-09T03:19:52.445Z,0.90
2023-05-09T03:22:23.481Z,0.90
2023-05-09T03:24:57.899Z,1.00
2023-05-09T03:27:46.266Z,1.20
2023-05-09T03:30:16.384Z,1.10
2023-05-09T03:32:45.923Z,1.20
2023-05-09T03:35:17.625Z,0.90
2023-05-09T03:37:48.194Z,0.90
2023-05-09T03:40:17.044Z,1.20
2023-05-09T03:42:51.968Z,1.00
2023-05-09T03:45:21.599Z,0.80
2023-05-09T03:47:49.920Z,0.80
2023-05-09T03:50:19.261Z,1.00
2023-05-09T03:52:47.847Z,1.00
2023-05-09T03:55:18.895Z,0.80
2023-05-09T03:57:47.365Z,0.90
2023-05-09T04:00:16.565Z,0.70
2023-05-09T04:02:51.239Z,0.70
2023-05-09T04:05:40.048Z,0.70
2023-05-09T04:08:11.709Z,0.80
2023-05-09T04:10:40.507Z,0.60
2023-05-09T04:13:08.870Z,0.50
2023-05-09T04:15:37.446Z,0.60
2023-05-09T04:18:06.200Z,0.70
2023-05-09T04:20:35.038Z,0.70
2023-05-09T04:23:05.346Z,0.60
2023-05-09T04:25:35.472Z,0.60
2023-05-09T04:28:04.877Z,0.50
2023-05-09T04:30:33.546Z,0.40
2023-05-09T04:33:02.749Z,0.40
2023-05-09T04:35:30.919Z,0.60
2023-05-09T04:38:00.170Z,0.50
2023-05-09T04:40:28.816Z,0.50
2023-05-09T04:47:32.315Z,0.40
2023-05-09T04:50:01.520Z,0.50
2023-05-09T04:52:30.383Z,0.50
2023-05-09T04:54:58.900Z,0.50
2023-05-09T04:57:30.766Z,0.20
2023-05-09T05:02:27.839Z,0.40
2023-05-09T05:08:19.363Z,0.40
2023-05-09T05:10:52.052Z,0.40
2023-05-09T05:13:21.800Z,0.30
2023-05-09T05:16:19.284Z,0.20
2023-05-09T05:18:48.501Z,0.40
2023-05-09T05:21:17.720Z,0.50
2023-05-09T05:23:46.595Z,0.30
2023-05-09T05:26:49.073Z,0.40
2023-05-09T05:29:18.203Z,0.70
2023-05-09T05:31:46.760Z,0.50
2023-05-09T05:36:48.904Z,0.40
2023-05-09T05:39:41.900Z,0.70
2023-05-09T05:42:10.367Z,0.60
2023-05-09T05:44:38.951Z,1.20
2023-05-09T05:47:07.425Z,0.60
2023-05-09T05:49:35.901Z,0.70
2023-05-09T05:54:34.094Z,0.70
2023-05-09T05:57:28.299Z,0.60
2023-05-09T05:59:57.229Z,0.40
2023-05-09T06:02:26.444Z,0.40
2023-05-09T06:04:56.487Z,0.90
2023-05-09T06:07:26.189Z,0.50
2023-05-09T06:12:22.745Z,0.70
2023-05-09T06:14:50.911Z,0.60
2023-05-09T06:17:19.845Z,0.80
2023-05-09T06:19:48.996Z,0.70
2023-05-09T06:22:17.474Z,0.60
2023-05-09T06:24:45.871Z,0.50
2023-05-09T06:31:21.323Z,0.60
2023-05-09T06:33:52.162Z,0.60
2023-05-09T06:36:20.318Z,0.70
2023-05-09T06:38:48.813Z,0.80
2023-05-09T06:41:17.506Z,1.00
2023-05-09T06:43:48.050Z,0.80
2023-05-09T06:46:16.973Z,1.00
2023-05-09T06:48:46.123Z,0.90
2023-05-09T06:51:14.393Z,1.00
2023-05-09T06:53:43.208Z,0.70
2023-05-09T06:56:12.591Z,0.80
2023-05-09T06:58:41.245Z,1.00
2023-05-09T07:01:09.687Z,0.80
2023-05-09T07:03:38.106Z,0.80
2023-05-09T07:06:06.922Z,1.20
2023-05-09T07:08:35.062Z,0.80
2023-05-09T07:11:03.272Z,1.10
2023-05-09T07:13:32.059Z,0.70
2023-05-09T07:16:00.570Z,0.70
2023-05-09T07:18:29.117Z,0.80
2023-05-09T07:21:00.814Z,3.60
2023-05-09T07:23:30.488Z,0.90
2023-05-09T07:25:59.685Z,1.20
2023-05-09T07:28:28.470Z,1.00
2023-05-09T07:30:57.120Z,1.00
2023-05-09T07:33:25.567Z,0.90
2023-05-09T07:35:54.021Z,1.10
2023-05-09T07:38:22.757Z,1.10
2023-05-09T07:41:16.935Z,1.00
2023-05-09T07:43:45.562Z,0.80
2023-05-09T07:46:14.093Z,1.30
2023-05-09T07:48:42.618Z,1.40
2023-05-09T07:51:11.224Z,1.30
2023-05-09T07:53:39.787Z,0.90
2023-05-09T07:56:33.462Z,1.20
2023-05-09T07:59:03.987Z,0.90
2023-05-09T08:01:32.164Z,1.00
2023-05-09T08:04:00.917Z,1.00
2023-05-09T08:06:31.558Z,1.10
2023-05-09T08:17:57.295Z,1.10
2023-05-09T08:20:26.246Z,1.40
2023-05-09T08:22:54.828Z,1.20
2023-05-09T08:25:23.104Z,1.40
2023-05-09T08:27:53.150Z,1.30
2023-05-09T08:30:23.748Z,1.40
2023-05-09T08:32:52.156Z,1.80
2023-05-09T08:35:20.811Z,1.80
2023-05-09T08:37:49.037Z,1.50
2023-05-09T08:40:17.939Z,1.50
2023-05-09T08:42:50.058Z,1.30
2023-05-09T08:45:28.041Z,1.40
2023-05-09T08:47:57.499Z,1.70
2023-05-09T08:50:29.921Z,1.50
2023-05-09T08:52:58.268Z,1.70
2023-05-09T08:55:28.456Z,1.90
2023-05-09T08:57:58.028Z,1.50
2023-05-09T09:00:28.042Z,1.60
2023-05-09T09:02:59.735Z,1.60
2023-05-09T09:08:08.019Z,2.00
2023-05-09T09:10:41.011Z,1.70
2023-05-09T09:13:13.196Z,1.60
2023-05-09T09:15:47.284Z,1.60
2023-05-09T09:18:22.318Z,1.50
2023-05-09T09:21:03.189Z,1.40
2023-05-09T09:24:17.385Z,1.20
2023-05-09T09:26:52.264Z,1.60
2023-05-09T09:29:23.122Z,1.60
2023-05-09T09:31:55.468Z,1.60
2023-05-09T09:34:25.107Z,2.00
2023-05-09T09:36:54.486Z,1.80
2023-05-09T09:39:23.373Z,1.90
2023-05-09T09:41:51.816Z,1.20
2023-05-09T09:44:22.491Z,1.60
2023-05-09T09:46:56.056Z,1.60
2023-05-09T09:49:27.126Z,1.60
2023-05-09T09:52:00.669Z,1.60
2023-05-09T09:54:32.994Z,1.60
2023-05-09T09:57:04.547Z,1.80
2023-05-09T09:59:33.134Z,1.70
2023-05-09T10:02:08.775Z,1.60
2023-05-09T10:04:47.299Z,1.60
2023-05-09T10:07:19.048Z,2.20
2023-05-09T10:09:49.569Z,1.90
2023-05-09T10:12:20.820Z,2.30
2023-05-09T10:14:53.124Z,1.80
2023-05-09T10:17:25.730Z,2.20
2023-05-09T10:19:56.100Z,1.80
2023-05-09T10:22:25.817Z,2.00
2023-05-09T10:25:08.801Z,2.30
2023-05-09T10:27:39.969Z,2.10
2023-05-09T10:30:20.922Z,2.20
2023-05-09T10:33:09.023Z,2.60
2023-05-09T10:35:47.292Z,1.90
2023-05-09T10:38:19.348Z,2.20
2023-05-09T10:40:48.652Z,1.60
2023-05-09T10:43:17.236Z,2.00
2023-05-09T10:45:50.940Z,2.30
2023-05-09T10:48:19.103Z,1.80
2023-05-09T10:50:53.541Z,2.00
2023-05-09T10:53:26.200Z,2.00
2023-05-09T10:56:01.065Z,1.60
2023-05-09T10:58:38.098Z,1.80
2023-05-09T11:01:11.178Z,1.90
2023-05-09T11:03:57.992Z,1.70
2023-05-09T11:06:45.351Z,2.10
2023-05-09T11:09:34.419Z,2.10
2023-05-09T11:12:06.419Z,2.20
2023-05-09T11:14:47.645Z,2.20
2023-05-09T11:17:23.521Z,1.90
2023-05-09T11:19:52.015Z,2.20
2023-05-09T11:25:17.994Z,2.20
2023-05-09T11:27:51.329Z,2.50
2023-05-09T11:30:22.658Z,2.00
2023-05-09T11:32:59.412Z,1.80
2023-05-09T11:35:28.769Z,1.60
2023-05-09T11:38:04.533Z,2.00
2023-05-09T11:40:35.589Z,2.20
2023-05-09T11:43:04.106Z,2.10
2023-05-09T11:45:34.401Z,2.20
2023-05-09T11:48:09.281Z,2.40
2023-05-09T11:50:38.073Z,1.80
2023-05-09T11:53:10.009Z,2.30
2023-05-09T11:55:39.207Z,2.00
2023-05-09T11:58:10.185Z,2.70
2023-05-09T12:00:47.255Z,2.60
2023-05-09T12:03:16.489Z,2.50
2023-05-09T12:05:45.422Z,2.60
2023-05-09T12:10:42.490Z,1.90
2023-05-09T12:13:10.742Z,2.30
2023-05-09T12:15:39.374Z,2.00
2023-05-09T12:18:10.128Z,1.80
2023-05-09T12:20:43.007Z,1.90
2023-05-09T12:23:15.221Z,1.90
2023-05-09T12:26:11.671Z,1.80
2023-05-09T12:28:44.019Z,2.10
2023-05-09T12:31:13.656Z,2.20
2023-05-09T12:33:42.527Z,1.90
2023-05-09T12:37:04.697Z,1.90
2023-05-09T12:39:33.360Z,2.00
2023-05-09T12:42:02.359Z,1.80
2023-05-09T12:44:31.399Z,2.10
2023-05-09T12:47:03.852Z,2.20
2023-05-09T12:49:52.677Z,1.90
2023-05-09T12:52:23.034Z,2.10
2023-05-09T12:54:53.413Z,2.30
2023-05-09T12:57:57.323Z,1.70
2023-05-09T13:00:27.708Z,2.10
2023-05-09T13:02:56.511Z,1.80
2023-05-09T13:05:25.484Z,1.60
2023-05-09T13:07:57.589Z,1.90
2023-05-09T13:10:30.474Z,2.20
2023-05-09T13:12:59.493Z,1.80
2023-05-09T13:17:56.565Z,1.50
2023-05-09T13:20:34.331Z,1.70
2023-05-09T13:23:02.710Z,1.80
2023-05-09T13:25:31.488Z,1.70
2023-05-09T13:28:06.433Z,1.80
2023-05-09T13:30:35.434Z,1.70
2023-05-09T13:33:29.121Z,2.10
2023-05-09T13:35:57.465Z,1.70
2023-05-09T13:38:26.255Z,2.10
2023-05-09T13:40:54.543Z,2.00
2023-05-09T13:43:24.344Z,1.60
2023-05-09T13:45:52.531Z,2.10
2023-05-09T13:48:21.222Z,1.50
2023-05-09T13:50:51.426Z,1.60
2023-05-09T13:53:20.446Z,2.00
2023-05-09T13:55:48.993Z,2.00
2023-05-09T13:58:17.177Z,2.40
2023-05-09T14:00:45.858Z,2.10
2023-05-09T14:03:14.108Z,2.20
2023-05-09T14:05:43.955Z,2.80
2023-05-09T14:08:13.959Z,2.50
2023-05-09T14:10:44.886Z,2.50
2023-05-09T14:13:13.213Z,2.30
2023-05-09T14:15:41.803Z,2.10
2023-05-09T14:18:10.537Z,2.20
2023-05-09T14:20:40.771Z,2.30
2023-05-09T14:23:09.762Z,2.10
2023-05-09T14:25:40.702Z,2.00
2023-05-09T14:30:38.063Z,1.90
2023-05-09T14:33:07.874Z,2.30
2023-05-09T14:35:37.397Z,2.50
2023-05-09T14:38:07.090Z,2.30
2023-05-09T14:40:35.370Z,2.00
2023-05-09T14:43:04.637Z,2.50
2023-05-09T14:45:35.499Z,2.60
2023-05-09T14:48:04.234Z,2.90
2023-05-09T14:50:35.321Z,2.80
2023-05-09T14:53:04.726Z,3.00
2023-05-09T14:55:34.132Z,3.00
2023-05-09T14:58:03.426Z,2.80
2023-05-09T15:00:32.028Z,2.80
2023-05-09T15:03:00.384Z,3.50
2023-05-09T15:05:28.867Z,2.80
2023-05-09T15:07:57.135Z,3.30
2023-05-09T15:10:28.317Z,3.60
2023-05-09T15:12:57.900Z,3.10
2023-05-09T15:15:32.213Z,4.10
2023-05-09T15:18:03.360Z,3.30
2023-05-09T15:20:33.885Z,3.50
2023-05-09T15:23:02.520Z,3.10
2023-05-09T15:25:32.377Z,3.00
2023-05-09T15:28:01.075Z,3.60
2023-05-09T15:30:29.645Z,3.50
2023-05-09T15:33:00.034Z,3.80
2023-05-09T15:35:28.333Z,2.90
2023-05-09T15:37:56.831Z,2.90
2023-05-09T15:41:15.708Z,3.60
2023-05-09T15:43:44.382Z,3.60
2023-05-09T15:46:13.130Z,3.20
2023-05-09T15:48:41.839Z,3.50
2023-05-09T15:51:10.663Z,3.30
2023-05-09T15:53:39.009Z,4.00
2023-05-09T15:56:08.837Z,3.00
2023-05-09T15:58:37.824Z,3.90
2023-05-09T16:01:08.492Z,3.90
2023-05-09T16:03:38.011Z,3.60
2023-05-09T16:06:06.950Z,3.80
2023-05-09T16:08:35.707Z,3.30
2023-05-09T16:11:24.087Z,3.50
2023-05-09T16:13:53.099Z,2.80
2023-05-09T16:16:21.876Z,3.40
2023-05-09T16:18:50.438Z,3.70
2023-05-09T16:21:19.668Z,3.50
2023-05-09T16:23:48.419Z,3.40
2023-05-09T16:28:45.184Z,3.40
2023-05-09T16:31:13.524Z,3.00
2023-05-09T16:33:42.240Z,3.00
2023-05-09T16:40:50.941Z,3.20
2023-05-09T16:43:22.238Z,3.10
2023-05-09T16:45:50.799Z,3.10
2023-05-09T16:48:19.609Z,3.20
2023-05-09T16:50:50.435Z,3.00
2023-05-09T16:53:20.354Z,3.50
2023-05-09T16:55:49.554Z,3.30
2023-05-09T17:00:51.293Z,3.50
2023-05-09T17:03:20.324Z,3.30
2023-05-09T17:05:48.488Z,4.00
2023-05-09T17:08:37.150Z,4.00
2023-05-09T17:11:05.935Z,3.80
2023-05-09T17:13:34.463Z,3.90
2023-05-09T17:16:03.446Z,4.80
2023-05-09T17:18:37.668Z,4.70
2023-05-09T17:21:20.944Z,4.00
2023-05-09T17:23:49.011Z,3.90
2023-05-09T17:26:17.292Z,3.50
2023-05-09T17:28:45.492Z,3.30
2023-05-09T17:31:14.497Z,3.50
2023-05-09T17:33:44.064Z,3.50
2023-05-09T17:36:12.470Z,3.20
2023-05-09T17:39:06.092Z,3.70
2023-05-09T17:41:34.997Z,4.00
2023-05-09T17:44:03.755Z,4.10
2023-05-09T17:46:36.222Z,3.30
2023-05-09T17:49:04.365Z,3.30
2023-05-09T17:51:33.129Z,3.40
2023-05-09T17:54:01.188Z,3.10
2023-05-09T17:56:29.466Z,4.10
2023-05-09T17:59:00.126Z,4.70
2023-05-09T18:01:28.404Z,4.00
2023-05-09T18:03:58.672Z,4.60
2023-05-09T18:06:26.973Z,5.30
2023-05-09T18:08:55.516Z,5.30
2023-05-09T18:11:25.062Z,7.00
2023-05-09T18:13:53.634Z,8.40
2023-05-09T18:16:22.412Z,9.50
2023-05-09T18:18:51.933Z,5.70
2023-05-09T18:21:20.514Z,4.10
2023-05-09T18:23:48.886Z,3.50
2023-05-09T18:26:17.233Z,4.20
2023-05-09T18:28:45.651Z,3.70
2023-05-09T18:31:14.060Z,3.40
2023-05-09T18:33:42.448Z,5.10
2023-05-09T18:36:11.441Z,4.80
2023-05-09T18:38:42.335Z,4.20
2023-05-09T18:41:32.729Z,3.70
2023-05-09T18:44:01.006Z,3.40
2023-05-09T18:46:32.597Z,3.70
2023-05-09T18:49:02.880Z,4.00
2023-05-09T18:51:32.484Z,4.20
2023-05-09T18:54:00.761Z,4.10
2023-05-09T18:56:28.931Z,3.70
2023-05-09T18:58:57.212Z,4.00
2023-05-09T19:01:26.950Z,3.90
2023-05-09T19:03:56.036Z,4.20
2023-05-09T19:06:24.593Z,3.90
2023-05-09T19:08:54.126Z,3.30
2023-05-09T19:11:24.452Z,3.80
2023-05-09T19:13:54.599Z,3.90
2023-05-09T19:16:24.962Z,3.50
2023-05-09T19:19:02.154Z,4.50
2023-05-09T19:21:31.245Z,4.20
2023-05-09T19:23:59.714Z,3.90
2023-05-09T19:26:28.098Z,3.80
2023-05-09T19:28:56.372Z,3.40
2023-05-09T19:31:28.433Z,3.30
2023-05-09T19:33:57.121Z,3.20
2023-05-09T19:36:25.121Z,3.40
2023-05-09T19:38:54.007Z,3.30
2023-05-09T19:41:22.364Z,3.20
2023-05-09T19:43:51.856Z,2.70
2023-05-09T19:46:20.154Z,3.20
2023-05-09T19:48:48.618Z,3.00
2023-05-09T19:51:17.406Z,2.90
2023-05-09T19:53:48.031Z,2.80
2023-05-09T19:56:17.353Z,3.10
2023-05-09T20:01:20.667Z,3.20
2023-05-09T20:03:56.438Z,3.50
2023-05-09T20:06:46.393Z,4.20
2023-05-09T20:09:22.712Z,3.90
2023-05-09T20:11:50.821Z,4.40
2023-05-09T20:14:18.963Z,4.40
2023-05-09T20:16:47.980Z,4.70
2023-05-09T20:19:19.959Z,4.40
2023-05-09T20:21:52.641Z,5.00
2023-05-09T20:24:20.891Z,5.20
2023-05-09T20:26:49.269Z,4.70
2023-05-09T20:29:17.345Z,4.50
2023-05-09T20:31:47.861Z,4.60
2023-05-09T20:34:19.241Z,4.60
2023-05-09T20:36:54.760Z,4.90
2023-05-09T20:41:56.032Z,4.60
2023-05-09T20:44:24.300Z,3.90
2023-05-09T20:46:55.037Z,4.30
2023-05-09T20:50:14.438Z,3.70
2023-05-09T20:52:43.715Z,4.20
2023-05-09T20:55:12.197Z,3.90
2023-05-09T20:57:40.784Z,4.20
2023-05-09T21:00:11.614Z,3.70
2023-05-09T21:02:39.993Z,3.90
2023-05-09T21:05:09.922Z,4.10
2023-05-09T21:07:38.069Z,3.90
2023-05-09T21:10:10.541Z,5.10
2023-05-09T21:12:38.617Z,4.20
2023-05-09T21:15:07.817Z,3.70
2023-05-09T21:17:36.027Z,4.10
2023-05-09T21:20:05.233Z,4.00
2023-05-09T21:22:33.452Z,3.90
2023-05-09T21:25:02.787Z,4.30
2023-05-09T21:27:31.914Z,4.10
2023-05-09T21:30:00.217Z,3.90
2023-05-09T21:32:32.810Z,4.60
2023-05-09T21:35:04.688Z,5.30
2023-05-09T21:37:33.759Z,5.10
2023-05-09T21:40:05.700Z,5.00
2023-05-09T21:42:36.555Z,5.30
2023-05-09T21:45:05.751Z,6.10
2023-05-09T21:47:34.932Z,5.80
2023-05-09T21:50:04.337Z,4.80
2023-05-09T21:52:32.891Z,5.60
2023-05-09T21:55:02.021Z,6.80
2023-05-09T21:57:30.295Z,5.10
2023-05-09T22:00:02.383Z,4.70
2023-05-09T22:02:30.693Z,5.10
2023-05-09T22:04:59.039Z,5.70
2023-05-09T22:07:27.818Z,4.80
2023-05-09T22:09:56.416Z,4.40
2023-05-09T22:12:25.174Z,4.60
2023-05-09T22:14:56.659Z,4.10
2023-05-09T22:17:27.682Z,4.50
2023-05-09T22:19:55.688Z,5.10
2023-05-09T22:22:24.042Z,4.70
2023-05-09T22:24:52.605Z,5.00
2023-05-09T22:27:20.931Z,5.20
2023-05-09T22:29:49.350Z,5.60
2023-05-09T22:32:17.934Z,6.10
2023-05-09T22:34:49.588Z,6.20
2023-05-09T22:37:17.865Z,5.30
2023-05-09T22:39:48.351Z,5.70
2023-05-09T22:42:17.038Z,5.00
2023-05-09T22:44:47.912Z,6.00
2023-05-09T22:47:16.463Z,5.20
2023-05-09T22:49:45.943Z,4.70
2023-05-09T22:52:14.648Z,4.70
2023-05-09T22:54:43.272Z,4.90
2023-05-09T22:57:12.244Z,4.70
2023-05-09T22:59:40.460Z,5.00
2023-05-09T23:02:09.378Z,6.00
2023-05-09T23:05:02.511Z,5.20
2023-05-09T23:07:31.397Z,4.80
2023-05-09T23:12:28.150Z,5.10
2023-05-09T23:14:56.307Z,4.90
2023-05-09T23:17:24.661Z,4.80
2023-05-09T23:19:53.384Z,4.30
2023-05-09T23:22:22.865Z,4.20
2023-05-09T23:24:51.310Z,4.40
2023-05-09T23:27:19.423Z,4.20
2023-05-09T23:29:47.794Z,4.70
2023-05-09T23:32:16.072Z,5.40
2023-05-09T23:34:44.253Z,4.70
2023-05-09T23:37:12.741Z,4.40
2023-05-09T23:39:41.082Z,4.20
2023-05-09T23:42:09.082Z,4.50
2023-05-09T23:44:37.191Z,3.60
2023-05-09T23:47:05.629Z,3.50
2023-05-09T23:49:34.003Z,3.70
2023-05-09T23:52:02.467Z,4.40
2023-05-09T23:54:30.962Z,4.30
2023-05-09T23:57:00.134Z,4.00
2023-05-09T23:59:28.648Z,4.40
